Time;durP1;ratioP1;P1;durP2;ratioP2;P2;SDS_P1;SDS_P2;PMS_P1;PMS_P2;Temp;Humidity;BMP_temperature;BMP_pressure;BME280_temperature;BME280_humidity;BME280_pressure;Samples;Min_cycle;Max_cycle;Signal;HPM_P1;HPM_P2
2021/03/31 00:02:31;;;;;;;;;;;;;;;1.65;63.67;102210.86;1720374;83;20209;-60
2021/03/31 00:05:30;;;;;;;;;;;;;;;1.68;64.07;102210.25;1721754;82;20314;-60
2021/03/31 00:08:34;;;;;;;;;;;;;;;1.74;64.11;102205.89;1721000;83;20218;-59
2021/03/31 00:11:38;;;;;;;;;;;;;;;1.78;64.08;102204.77;1720610;83;20549;-60
2021/03/31 00:14:45;;;;;;;;;;;;;;;1.81;63.80;102205.11;1720759;83;20285;-60
2021/03/31 00:17:49;;;;;;;;;;;;;;;1.80;63.77;102202.00;1720786;83;20277;-60
2021/03/31 00:20:54;;;;;;;;;;;;;;;1.83;63.74;102208.59;1720389;83;20321;-60
2021/03/31 00:23:59;;;;;;;;;;;;;;;1.86;63.75;102197.63;1721196;83;20269;-60
2021/03/31 00:27:04;;;;;;;;;;;;;;;1.80;63.66;102196.59;1720895;83;20293;-61
2021/03/31 00:30:09;;;;;;;;;;;;;;;1.73;63.70;102185.72;1720879;83;20301;-60
2021/03/31 00:33:14;;;;;;;;;;;;;;;1.66;63.71;102186.95;1721211;81;20284;-60
2021/03/31 00:36:19;;;;;;;;;;;;;;;1.63;63.89;102189.81;1720558;83;20285;-60
2021/03/31 00:39:24;;;;;;;;;;;;;;;1.59;63.93;102189.58;1720585;83;20312;-61
2021/03/31 00:42:28;;;;;;;;;;;;;;;1.59;64.15;102196.33;1721066;83;20197;-60
2021/03/31 00:45:33;;;;;;;;;;;;;;;1.55;64.15;102193.74;1721543;83;20574;-60
2021/03/31 00:48:37;;;;;;;;;;;;;;;1.54;64.31;102193.36;1721034;83;20367;-60
2021/03/31 00:51:40;;;;;;;;;;;;;;;1.56;64.69;102193.28;1721225;83;20206;-59
2021/03/31 00:54:46;;;;;;;;;;;;;;;1.64;64.53;102192.44;1713551;83;20202;-60
2021/03/31 00:57:49;;;;;;;;;;;;;;;1.64;64.26;102188.84;1723816;83;20218;-60
2021/03/31 01:00:54;;;;;;;;;;;;;;;1.61;64.28;102186.30;1690737;84;20353;-60
2021/03/31 01:03:59;;;;;;;;;;;;;;;1.59;64.41;102189.08;1721557;83;20313;-60
2021/03/31 01:07:04;;;;;;;;;;;;;;;1.61;64.77;102187.66;1720805;83;20245;-60
2021/03/31 01:10:09;;;;;;;;;;;;;;;1.55;64.67;102177.55;1722522;83;20281;-59
2021/03/31 01:13:26;;;;;;;;;;;;;;;1.52;64.47;102180.41;1709785;82;20206;-59
2021/03/31 01:16:43;;;;;;;;;;;;;;;1.45;64.40;102180.78;1720822;83;20309;-59
2021/03/31 01:20:13;;;;;;;;;;;;;;;1.40;64.58;102182.36;1720682;83;20549;-59
2021/03/31 01:23:35;;;;;;;;;;;;;;;1.36;64.54;102178.54;1721404;83;20237;-59
2021/03/31 01:26:55;;;;;;;;;;;;;;;1.32;64.56;102183.20;1721147;83;20289;-58
2021/03/31 01:30:19;;;;;;;;;;;;;;;1.31;64.51;102176.06;1685110;85;20599;-58
2021/03/31 01:33:43;;;;;;;;;;;;;;;1.29;64.42;102174.38;1724351;82;20201;-58
2021/03/31 01:36:47;;;;;;;;;;;;;;;1.23;64.47;102174.67;1721126;83;20351;-58
2021/03/31 01:39:50;;;;;;;;;;;;;;;1.14;64.54;102174.62;1726149;83;20268;-58
2021/03/31 01:43:09;;;;;;;;;;;;;;;1.09;64.71;102171.75;1721044;82;20229;-58
2021/03/31 01:46:13;;;;;;;;;;;;;;;1.09;64.91;102174.45;1726298;83;20312;-59
2021/03/31 01:49:17;;;;;;;;;;;;;;;1.08;64.99;102176.27;1704518;83;20221;-59
2021/03/31 01:52:23;;;;;;;;;;;;;;;1.08;65.09;102172.22;1726534;83;20253;-58
2021/03/31 01:55:26;;;;;;;;;;;;;;;1.10;65.28;102177.53;1721283;83;20213;-59
2021/03/31 01:58:31;;;;;;;;;;;;;;;1.15;65.23;102175.50;1725978;83;20213;-59
2021/03/31 02:01:34;;;;;;;;;;;;;;;1.15;65.14;102172.81;1721235;83;20333;-59
2021/03/31 02:04:41;;;;;;;;;;;;;;;1.15;65.40;102173.70;1726000;83;20949;-60
2021/03/31 02:07:47;;;;;;;;;;;;;;;1.22;65.41;102175.63;1721026;83;20221;-58
2021/03/31 02:10:51;;;;;;;;;;;;;;;1.19;65.22;102175.28;1726419;83;20213;-59
2021/03/31 02:13:56;;;;;;;;;;;;;;;1.12;65.23;102169.80;1720952;82;20257;-59
2021/03/31 02:17:00;;;;;;;;;;;;;;;1.08;65.33;102165.94;1725969;83;20261;-58
2021/03/31 02:20:04;;;;;;;;;;;;;;;1.05;65.63;102164.28;1721180;83;20241;-59
2021/03/31 02:23:11;;;;;;;;;;;;;;;1.09;65.69;102170.41;1726414;83;20272;-59
2021/03/31 02:26:17;;;;;;;;;;;;;;;1.10;65.70;102167.64;1721024;83;20289;-59
2021/03/31 02:29:22;;;;;;;;;;;;;;;1.11;65.54;102165.33;1726217;83;20217;-59
2021/03/31 02:32:28;;;;;;;;;;;;;;;1.11;65.51;102163.98;1726451;83;20209;-59
2021/03/31 02:35:35;;;;;;;;;;;;;;;1.13;65.32;102167.48;1720638;82;20242;-59
2021/03/31 02:38:39;;;;;;;;;;;;;;;1.07;65.04;102170.48;1726270;83;20272;-58
2021/03/31 02:41:46;;;;;;;;;;;;;;;0.99;65.13;102169.96;1721071;83;20222;-59
2021/03/31 02:44:52;;;;;;;;;;;;;;;0.96;65.18;102171.92;1720989;83;20206;-59
2021/03/31 02:47:55;;;;;;;;;;;;;;;0.95;65.08;102171.53;1726354;83;20217;-59
2021/03/31 02:51:02;;;;;;;;;;;;;;;0.89;65.07;102169.09;1721569;83;20283;-59
2021/03/31 02:54:08;;;;;;;;;;;;;;;0.82;65.05;102175.73;1726243;83;20272;-59
2021/03/31 02:57:14;;;;;;;;;;;;;;;0.75;65.16;102171.09;1721107;83;20285;-59
2021/03/31 03:00:19;;;;;;;;;;;;;;;0.74;65.32;102166.66;1710391;83;20209;-59
2021/03/31 03:03:23;;;;;;;;;;;;;;;0.71;65.31;102165.45;1726307;83;20284;-59
2021/03/31 03:06:27;;;;;;;;;;;;;;;0.66;65.44;102159.39;1721313;83;20547;-59
2021/03/31 03:09:34;;;;;;;;;;;;;;;0.68;65.63;102165.56;1726443;83;20202;-58
2021/03/31 03:12:37;;;;;;;;;;;;;;;0.71;65.63;102163.22;1721201;82;20210;-59
2021/03/31 03:15:41;;;;;;;;;;;;;;;0.76;65.96;102163.89;1721543;82;20293;-60
2021/03/31 03:18:46;;;;;;;;;;;;;;;0.86;65.93;102163.38;1726077;83;20261;-59
2021/03/31 03:21:51;;;;;;;;;;;;;;;0.89;65.62;102160.55;1721621;83;20739;-58
2021/03/31 03:24:56;;;;;;;;;;;;;;;0.90;65.57;102162.31;1726602;83;20245;-59
2021/03/31 03:27:59;;;;;;;;;;;;;;;0.85;65.48;102160.30;1721341;83;20273;-60
2021/03/31 03:31:05;;;;;;;;;;;;;;;0.84;65.68;102153.13;1726256;83;20284;-59
2021/03/31 03:34:10;;;;;;;;;;;;;;;0.86;65.82;102155.76;1721380;83;20249;-59
2021/03/31 03:37:14;;;;;;;;;;;;;;;0.87;65.89;102155.69;1694551;83;20218;-59
2021/03/31 03:40:19;;;;;;;;;;;;;;;0.86;65.79;102157.99;1710307;83;20218;-60
2021/03/31 03:43:23;;;;;;;;;;;;;;;0.91;66.03;102152.37;1709488;82;20261;-60
2021/03/31 03:46:28;;;;;;;;;;;;;;;0.97;66.08;102161.06;1711272;83;20217;-59
2021/03/31 03:49:31;;;;;;;;;;;;;;;1.04;65.99;102161.66;1710659;83;20258;-59
2021/03/31 03:52:36;;;;;;;;;;;;;;;1.08;66.01;102161.43;1710851;83;20257;-59
2021/03/31 03:55:40;;;;;;;;;;;;;;;1.18;66.21;102157.36;1710751;83;20294;-59
2021/03/31 03:58:46;;;;;;;;;;;;;;;1.30;65.89;102154.56;1710586;83;20242;-59
2021/03/31 04:01:49;;;;;;;;;;;;;;;1.39;65.58;102163.08;1710727;83;20186;-60
2021/03/31 04:04:53;;;;;;;;;;;;;;;1.49;65.52;102156.77;1710938;83;20206;-60
2021/03/31 04:07:56;;;;;;;;;;;;;;;1.60;65.52;102160.27;1710760;83;20258;-61
2021/03/31 04:11:03;;;;;;;;;;;;;;;1.74;65.40;102149.20;1710705;83;20218;-59
2021/03/31 04:14:08;;;;;;;;;;;;;;;1.87;65.28;102149.45;1710410;82;20210;-58
2021/03/31 04:17:13;;;;;;;;;;;;;;;1.97;65.04;102154.77;1711079;83;20249;-59
2021/03/31 04:20:20;;;;;;;;;;;;;;;2.09;64.94;102150.10;1710574;83;20221;-59
2021/03/31 04:23:24;;;;;;;;;;;;;;;2.25;64.70;102152.41;1710698;83;20258;-59
2021/03/31 04:26:30;;;;;;;;;;;;;;;2.41;64.47;102146.11;1709540;83;20253;-59
2021/03/31 04:29:34;;;;;;;;;;;;;;;2.60;64.32;102139.27;1710831;83;20198;-60
2021/03/31 04:32:38;;;;;;;;;;;;;;;2.78;64.30;102135.08;1710875;83;20242;-59
2021/03/31 04:35:42;;;;;;;;;;;;;;;2.98;63.98;102136.70;1711413;82;20242;-60
2021/03/31 04:38:56;;;;;;;;;;;;;;;3.15;63.76;102129.86;1718157;83;20245;-60
2021/03/31 04:42:00;;;;;;;;;;;;;;;3.30;63.48;102126.77;1718963;83;20213;-60
2021/03/31 04:45:03;;;;;;;;;;;;;;;3.43;63.22;102121.91;1718372;83;20209;-59
2021/03/31 04:48:07;;;;;;;;;;;;;;;3.62;63.08;102128.01;1717863;83;20250;-59
2021/03/31 04:51:12;;;;;;;;;;;;;;;3.79;62.65;102127.04;1717599;83;20254;-59
2021/03/31 04:54:18;;;;;;;;;;;;;;;3.95;62.46;102123.31;1717657;83;20210;-58
2021/03/31 04:57:21;;;;;;;;;;;;;;;4.15;62.30;102123.48;1717784;83;20474;-59
2021/03/31 05:00:25;;;;;;;;;;;;;;;4.32;62.09;102122.85;1718303;83;20213;-58
2021/03/31 05:03:29;;;;;;;;;;;;;;;4.51;61.96;102122.11;1743890;81;20212;-59
2021/03/31 05:06:34;;;;;;;;;;;;;;;4.68;62.06;102121.55;1735586;81;20232;-59
2021/03/31 05:09:38;;;;;;;;;;;;;;;4.81;62.17;102131.99;1741408;82;20704;-60
2021/03/31 05:12:41;;;;;;;;;;;;;;;4.94;62.34;102128.91;1741992;82;20244;-58
2021/03/31 05:15:44;;;;;;;;;;;;;;;5.07;62.42;102128.04;1742300;82;20216;-58
2021/03/31 05:18:49;;;;;;;;;;;;;;;5.23;62.39;102122.48;1743823;81;20212;-57
2021/03/31 05:21:53;;;;;;;;;;;;;;;5.35;62.06;102127.11;1744440;82;20215;-56
2021/03/31 05:24:56;;;;;;;;;;;;;;;5.47;61.93;102122.25;1739039;82;20593;-57
2021/03/31 05:28:01;;;;;;;;;;;;;;;5.62;61.97;102121.22;1717885;83;20244;-58
2021/03/31 05:31:07;;;;;;;;;;;;;;;5.76;62.03;102123.41;1742436;81;20318;-58
2021/03/31 05:34:12;;;;;;;;;;;;;;;5.84;62.05;102126.52;1742256;82;20623;-58
2021/03/31 05:37:18;;;;;;;;;;;;;;;5.91;62.16;102119.67;1747696;81;20297;-58
2021/03/31 05:40:24;;;;;;;;;;;;;;;5.99;62.12;102117.82;1738423;81;20211;-59
2021/03/31 05:43:30;;;;;;;;;;;;;;;6.05;62.16;102114.20;1755224;82;20275;-59
2021/03/31 05:46:36;;;;;;;;;;;;;;;6.08;62.24;102109.03;1750723;81;20207;-58
2021/03/31 05:49:40;;;;;;;;;;;;;;;6.09;62.18;102103.48;1755505;81;20207;-58
2021/03/31 05:52:44;;;;;;;;;;;;;;;6.11;62.41;102102.02;1750931;81;20242;-58
2021/03/31 05:55:49;;;;;;;;;;;;;;;6.24;62.58;102098.84;1726153;83;20215;-58
2021/03/31 05:58:56;;;;;;;;;;;;;;;6.37;62.52;102101.58;1721034;83;20285;-58
2021/03/31 06:01:59;;;;;;;;;;;;;;;6.46;62.46;102094.12;1753402;81;20242;-58
2021/03/31 06:05:03;;;;;;;;;;;;;;;6.58;62.27;102095.48;1748503;81;20217;-59
2021/03/31 06:08:08;;;;;;;;;;;;;;;6.70;62.06;102094.63;1722668;82;20229;-58
2021/03/31 06:11:15;;;;;;;;;;;;;;;6.84;61.80;102088.18;1745594;80;20564;-58
2021/03/31 06:14:19;;;;;;;;;;;;;;;7.03;61.15;102099.00;1750506;80;20238;-59
2021/03/31 06:17:25;;;;;;;;;;;;;;;7.22;60.47;102091.70;1669746;85;20248;-59
2021/03/31 06:20:48;;;;;;;;;;;;;;;7.33;60.12;102088.58;1745033;81;20224;-59
2021/03/31 06:24:11;;;;;;;;;;;;;;;7.46;59.70;102083.97;1740090;82;20258;-60
2021/03/31 06:27:06;;;;;;;;;;;;;;;7.63;59.18;102079.48;1755018;82;20302;-59
2021/03/31 06:30:13;;;;;;;;;;;;;;;7.70;58.52;102081.73;1753942;81;20559;-59
2021/03/31 06:33:22;;;;;;;;;;;;;;;7.74;58.33;102080.02;1754310;81;20208;-59
2021/03/31 06:36:25;;;;;;;;;;;;;;;7.75;58.16;102081.77;1763362;81;20283;-59
2021/03/31 06:39:35;;;;;;;;;;;;;;;7.86;57.71;102076.86;1719626;82;20233;-59
2021/03/31 06:42:47;;;;;;;;;;;;;;;7.98;57.33;102078.63;1720839;83;20539;-59
2021/03/31 06:45:52;;;;;;;;;;;;;;;8.13;56.77;102074.73;1731576;82;20203;-60
2021/03/31 06:48:58;;;;;;;;;;;;;;;8.09;56.14;102069.12;1751251;81;20199;-59
2021/03/31 06:52:14;;;;;;;;;;;;;;;7.96;55.64;102067.00;1734263;80;20624;-59
2021/03/31 06:55:19;;;;;;;;;;;;;;;7.93;56.19;102063.99;1752012;81;20430;-59
2021/03/31 06:58:24;;;;;;;;;;;;;;;8.10;56.02;102062.70;1732052;82;20565;-59
2021/03/31 07:01:32;;;;;;;;;;;;;;;8.32;55.67;102061.44;1750563;82;20248;-59
2021/03/31 07:04:36;;;;;;;;;;;;;;;8.51;55.34;102054.89;1750870;82;20624;-59
2021/03/31 07:07:43;;;;;;;;;;;;;;;8.67;54.86;102048.59;1735245;81;20284;-58
2021/03/31 07:10:58;;;;;;;;;;;;;;;8.79;54.14;102041.64;1750682;82;20220;-58
2021/03/31 07:14:04;;;;;;;;;;;;;;;8.86;53.38;102048.33;1754876;81;20606;-58
2021/03/31 07:17:08;;;;;;;;;;;;;;;8.90;53.25;102041.64;1750245;81;20296;-60
2021/03/31 07:20:15;;;;;;;;;;;;;;;9.11;53.03;102030.82;1755275;82;20254;-60
2021/03/31 07:23:19;;;;;;;;;;;;;;;9.36;51.76;102029.64;1754873;81;20575;-59
2021/03/31 07:26:25;;;;;;;;;;;;;;;9.38;51.36;102030.39;1750457;82;20600;-59
2021/03/31 07:29:30;;;;;;;;;;;;;;;9.51;50.90;102022.41;1751148;81;20220;-59
2021/03/31 07:32:33;;;;;;;;;;;;;;;9.79;50.68;102022.29;1740813;81;20219;-59
2021/03/31 07:35:38;;;;;;;;;;;;;;;10.03;49.73;102016.08;1746682;81;20296;-58
2021/03/31 07:38:43;;;;;;;;;;;;;;;10.14;48.79;102019.67;1751721;81;20319;-60
2021/03/31 07:41:47;;;;;;;;;;;;;;;10.29;48.63;102019.69;1734404;82;20230;-60
2021/03/31 07:44:54;;;;;;;;;;;;;;;10.53;48.21;102011.17;1691510;84;20261;-59
2021/03/31 07:47:56;;;;;;;;;;;;;;;10.66;47.52;102005.47;1679688;84;20212;-60
2021/03/31 07:51:00;;;;;;;;;;;;;;;10.76;46.73;102005.03;1698468;83;20381;-59
2021/03/31 07:54:07;;;;;;;;;;;;;;;10.76;45.54;102005.91;1701076;83;20218;-59
2021/03/31 07:57:32;;;;;;;;;;;;;;;10.80;44.94;101991.44;1699833;83;20617;-59
2021/03/31 08:00:58;;;;;;;;;;;;;;;10.76;44.99;101994.07;1697648;83;20211;-59
2021/03/31 08:04:04;;;;;;;;;;;;;;;10.67;44.82;101990.80;1698986;83;20219;-60
2021/03/31 08:07:09;;;;;;;;;;;;;;;10.71;44.88;101995.86;1663717;83;20213;-59
2021/03/31 08:10:21;;;;;;;;;;;;;;;10.82;44.36;101998.50;1734941;81;20295;-59
2021/03/31 08:13:39;;;;;;;;;;;;;;;10.91;44.27;101989.97;1677167;85;20210;-59
2021/03/31 08:16:45;;;;;;;;;;;;;;;11.07;44.12;101984.30;1698062;84;20216;-59
2021/03/31 08:19:55;;;;;;;;;;;;;;;11.22;44.07;101985.66;1700234;83;20232;-58
2021/03/31 08:22:56;;;;;;;;;;;;;;;11.34;43.80;101976.78;1690765;84;20581;-58
2021/03/31 08:26:02;;;;;;;;;;;;;;;11.45;43.64;101972.04;1689613;83;20239;-59
2021/03/31 08:29:11;;;;;;;;;;;;;;;11.51;43.18;101974.73;1676759;85;20210;-59
2021/03/31 08:32:17;;;;;;;;;;;;;;;11.55;43.43;101965.19;1730441;82;20210;-59
2021/03/31 08:35:23;;;;;;;;;;;;;;;11.56;43.20;101961.45;1686076;85;20306;-59
2021/03/31 08:38:32;;;;;;;;;;;;;;;11.57;43.09;101957.20;1686465;85;20634;-60
2021/03/31 08:41:38;;;;;;;;;;;;;;;11.51;43.06;101952.80;1686221;83;20258;-60
2021/03/31 08:44:48;;;;;;;;;;;;;;;11.49;43.08;101943.83;1686302;85;20399;-60
2021/03/31 08:47:49;;;;;;;;;;;;;;;11.44;42.68;101948.87;1686645;85;20290;-59
2021/03/31 08:50:53;;;;;;;;;;;;;;;11.34;42.43;101947.98;1629517;88;20255;-59
2021/03/31 08:53:57;;;;;;;;;;;;;;;11.39;42.79;101945.69;1629458;87;20371;-59
2021/03/31 08:57:10;;;;;;;;;;;;;;;11.57;42.57;101937.12;1621505;88;20533;-59
2021/03/31 09:00:15;;;;;;;;;;;;;;;11.72;41.94;101928.34;1693143;84;20228;-60
2021/03/31 09:03:20;;;;;;;;;;;;;;;11.85;42.18;101923.42;1690932;84;20585;-60
2021/03/31 09:06:25;;;;;;;;;;;;;;;12.05;41.37;101912.75;1700639;83;20216;-59
2021/03/31 09:09:31;;;;;;;;;;;;;;;12.12;41.28;101914.41;1699933;83;20243;-59
2021/03/31 09:12:38;;;;;;;;;;;;;;;12.14;41.57;101908.27;1699607;83;20601;-59
2021/03/31 09:15:43;;;;;;;;;;;;;;;12.27;41.86;101907.94;1714517;82;20582;-59
2021/03/31 09:18:50;;;;;;;;;;;;;;;12.50;41.13;101910.16;1701534;83;20249;-58
2021/03/31 09:21:54;;;;;;;;;;;;;;;12.56;40.43;101899.08;1698796;84;20252;-59
2021/03/31 09:25:00;;;;;;;;;;;;;;;12.67;40.49;101901.63;1693175;84;20260;-59
2021/03/31 09:28:06;;;;;;;;;;;;;;;12.84;40.37;101889.31;1690994;84;20216;-58
2021/03/31 09:31:21;;;;;;;;;;;;;;;13.06;39.89;101887.53;1695770;84;20216;-58
2021/03/31 09:34:18;;;;;;;;;;;;;;;13.28;39.55;101884.83;1691928;84;20256;-59
2021/03/31 09:37:26;;;;;;;;;;;;;;;13.42;39.81;101881.02;1690933;84;20265;-60
2021/03/31 09:40:36;;;;;;;;;;;;;;;13.54;39.04;101878.37;1698484;83;20220;-60
2021/03/31 09:43:42;;;;;;;;;;;;;;;13.59;38.54;101872.39;1749243;82;20207;-60
2021/03/31 09:46:48;;;;;;;;;;;;;;;13.60;38.54;101869.13;1749578;81;20214;-59
2021/03/31 09:49:52;;;;;;;;;;;;;;;13.67;38.14;101862.83;1749779;82;20219;-60
2021/03/31 09:53:00;;;;;;;;;;;;;;;13.83;38.51;101857.45;1754392;82;20357;-60
2021/03/31 09:56:05;;;;;;;;;;;;;;;13.91;37.91;101855.25;1757132;81;20210;-60
2021/03/31 09:59:08;;;;;;;;;;;;;;;14.00;37.48;101845.52;1750392;81;20572;-59
2021/03/31 10:02:17;;;;;;;;;;;;;;;14.15;38.32;101836.14;1749299;82;20250;-56
2021/03/31 10:05:24;;;;;;;;;;;;;;;14.40;36.49;101833.38;1749927;81;20848;-57
2021/03/31 10:08:28;;;;;;;;;;;;;;;14.63;36.50;101833.16;1749558;82;20203;-57
2021/03/31 10:11:43;;;;;;;;;;;;;;;14.76;35.83;101826.63;1757473;81;20571;-58
2021/03/31 10:14:55;;;;;;;;;;;;;;;14.57;36.31;101823.31;1754932;81;20276;-57
2021/03/31 10:18:00;;;;;;;;;;;;;;;14.52;36.08;101825.70;1744228;82;20573;-57
2021/03/31 10:21:07;;;;;;;;;;;;;;;14.54;35.84;101820.34;1738120;82;20199;-57
2021/03/31 10:24:14;;;;;;;;;;;;;;;14.72;35.83;101821.11;1746948;82;20254;-58
2021/03/31 10:27:22;;;;;;;;;;;;;;;14.76;36.38;101813.37;1755845;81;20279;-58
2021/03/31 10:30:34;;;;;;;;;;;;;;;14.74;35.97;101820.44;1750609;81;20464;-55
2021/03/31 10:33:40;;;;;;;;;;;;;;;14.57;36.24;101815.04;1756128;81;20293;-56
2021/03/31 10:40:29;;;;;;;;;;;;;;;14.31;36.98;101812.34;1757174;81;20271;-56
2021/03/31 10:50:06;;;;;;;;;;;;;;;14.64;36.81;101803.67;1738253;81;20208;-57
2021/03/31 10:53:12;;;;;;;;;;;;;;;14.84;36.65;101801.83;1674558;84;20266;-57
2021/03/31 10:56:18;;;;;;;;;;;;;;;14.98;36.45;101796.19;1737592;81;20294;-57
2021/03/31 10:59:22;;;;;;;;;;;;;;;15.02;36.42;101793.42;1697011;84;20288;-56
2021/03/31 11:02:27;;;;;;;;;;;;;;;15.14;36.49;101790.70;1696596;83;20287;-57
2021/03/31 11:05:31;;;;;;;;;;;;;;;15.26;36.12;101781.55;1687729;83;20259;-56
2021/03/31 11:08:34;;;;;;;;;;;;;;;15.24;36.23;101785.02;1648699;85;20267;-57
2021/03/31 11:11:37;;;;;;;;;;;;;;;15.19;36.19;101771.70;1675000;85;20320;-57
2021/03/31 11:14:42;;;;;;;;;;;;;;;15.17;35.61;101771.04;1676113;84;20249;-56
2021/03/31 11:27:36;;;;;;;;;;;;;;;14.99;35.93;101769.82;1687792;83;20568;-57
2021/03/31 11:30:40;;;;;;;;;;;;;;;15.02;35.97;101756.19;1687675;83;20622;-57
2021/03/31 11:33:43;;;;;;;;;;;;;;;15.03;35.92;101756.55;1687369;84;20560;-57
2021/03/31 11:36:47;;;;;;;;;;;;;;;15.09;36.21;101753.11;1685539;83;20256;-57
2021/03/31 11:39:51;;;;;;;;;;;;;;;15.27;35.93;101747.42;1746896;81;20306;-56
2021/03/31 11:42:58;;;;;;;;;;;;;;;15.53;36.29;101743.45;1746204;81;20299;-55
2021/03/31 11:46:01;;;;;;;;;;;;;;;15.83;35.96;101740.45;1689422;83;20267;-56
2021/03/31 11:49:06;;;;;;;;;;;;;;;16.09;35.38;101732.23;1686567;84;20210;-57
2021/03/31 11:52:10;;;;;;;;;;;;;;;16.35;34.68;101737.48;1684992;83;20301;-57
2021/03/31 11:55:15;;;;;;;;;;;;;;;16.50;34.64;101732.09;1676986;85;20297;-56
2021/03/31 11:58:19;;;;;;;;;;;;;;;16.75;34.05;101732.27;1686311;84;20212;-55
2021/03/31 12:01:25;;;;;;;;;;;;;;;16.92;33.80;101722.84;1684023;85;20597;-55
2021/03/31 12:04:30;;;;;;;;;;;;;;;17.01;33.40;101723.10;1686185;85;20219;-56
2021/03/31 12:07:35;;;;;;;;;;;;;;;17.09;33.45;101714.23;1687527;83;20681;-57
2021/03/31 12:10:42;;;;;;;;;;;;;;;17.14;32.92;101719.20;1716055;83;20228;-57
2021/03/31 12:13:48;;;;;;;;;;;;;;;17.08;33.19;101710.23;1688527;82;20208;-56
2021/03/31 12:16:52;;;;;;;;;;;;;;;17.13;33.39;101710.02;1686426;85;20215;-55
2021/03/31 12:19:55;;;;;;;;;;;;;;;17.19;33.70;101705.12;1686858;83;20219;-56
2021/03/31 12:22:59;;;;;;;;;;;;;;;17.35;32.72;101694.41;1686785;83;20277;-56
2021/03/31 12:26:05;;;;;;;;;;;;;;;17.47;32.46;101695.73;1686785;84;20305;-56
2021/03/31 12:29:09;;;;;;;;;;;;;;;17.53;32.43;101697.23;1692326;83;20302;-57
2021/03/31 12:32:14;;;;;;;;;;;;;;;17.60;32.41;101685.70;1682533;84;20222;-57
2021/03/31 13:39:22;;;;;;;;;;;;;;;16.10;34.99;101608.27;1714880;82;20237;-56
2021/03/31 13:42:22;;;;;;;;;;;;;;;16.00;35.59;101597.95;1739845;82;20295;-59
2021/03/31 13:45:26;;;;;;;;;;;;;;;15.96;35.66;101604.91;1739175;81;20216;-57
2021/03/31 13:48:49;;;;;;;;;;;;;;;15.95;35.62;101597.64;1739065;81;20831;-57
2021/03/31 13:52:33;;;;;;;;;;;;;;;15.93;35.36;101594.22;1728327;82;20275;-56
2021/03/31 13:54:55;;;;;;;;;;;;;;;15.93;35.67;101598.88;1737533;82;20568;-56
2021/03/31 13:57:58;;;;;;;;;;;;;;;15.82;36.06;101590.99;1731681;81;20650;-57
2021/03/31 14:01:01;;;;;;;;;;;;;;;15.70;36.85;101591.91;1738050;81;20211;-57
2021/03/31 14:04:05;;;;;;;;;;;;;;;15.66;36.63;101587.80;1722779;82;20615;-57
2021/03/31 14:07:11;;;;;;;;;;;;;;;15.69;36.28;101583.29;1704661;82;20250;-57
2021/03/31 14:10:16;;;;;;;;;;;;;;;15.73;36.39;101583.80;1686003;83;20220;-57
2021/03/31 14:13:21;;;;;;;;;;;;;;;15.74;36.05;101582.23;1689793;84;20588;-57
2021/03/31 14:16:32;;;;;;;;;;;;;;;15.76;36.49;101575.16;1687758;83;20224;-57
2021/03/31 14:19:40;;;;;;;;;;;;;;;15.71;36.35;101570.17;1686915;85;20212;-57
2021/03/31 14:22:43;;;;;;;;;;;;;;;15.69;36.25;101565.86;1687495;84;20216;-57
2021/03/31 14:25:47;;;;;;;;;;;;;;;15.60;36.03;101564.18;1686636;85;20285;-58
2021/03/31 14:28:53;;;;;;;;;;;;;;;15.49;36.37;101551.62;1688654;83;20288;-58
2021/03/31 14:32:00;;;;;;;;;;;;;;;15.42;36.50;101556.66;1687342;83;20216;-58
2021/03/31 14:35:05;;;;;;;;;;;;;;;15.35;36.72;101548.20;1692293;83;20244;-59
2021/03/31 14:38:10;;;;;;;;;;;;;;;15.28;36.91;101554.10;1691128;83;20215;-57
2021/03/31 14:41:16;;;;;;;;;;;;;;;15.15;37.00;101552.92;1741015;79;20228;-58
2021/03/31 14:44:22;;;;;;;;;;;;;;;15.01;37.15;101543.49;1741848;82;20558;-57
2021/03/31 14:47:33;;;;;;;;;;;;;;;14.83;37.60;101542.33;1742173;82;20220;-58
2021/03/31 14:50:39;;;;;;;;;;;;;;;14.75;37.79;101540.09;1745303;82;20298;-58
2021/03/31 14:57:32;;;;;;;;;;;;;;;14.54;38.32;101537.87;1744221;81;20225;-58
2021/03/31 15:00:27;;;;;;;;;;;;;;;14.44;38.71;101534.95;1741713;81;20252;-60
2021/03/31 15:03:31;;;;;;;;;;;;;;;14.40;38.55;101530.30;1747367;81;20938;-59
2021/03/31 15:06:34;;;;;;;;;;;;;;;14.35;38.59;101529.12;1741400;82;20213;-59
2021/03/31 15:09:44;;;;;;;;;;;;;;;14.29;38.63;101525.64;1742784;82;20300;-59
2021/03/31 15:12:48;;;;;;;;;;;;;;;14.25;38.85;101528.41;1743811;82;20204;-58
2021/03/31 15:15:52;;;;;;;;;;;;;;;14.21;38.91;101520.09;1745190;81;20215;-59
2021/03/31 15:18:59;;;;;;;;;;;;;;;14.16;39.10;101523.91;1746059;81;20331;-59
2021/03/31 15:25:16;;;;;;;;;;;;;;;14.09;39.35;101527.86;1747526;82;20235;-60
2021/03/31 15:28:21;;;;;;;;;;;;;;;14.04;39.72;101525.26;1746894;82;20432;-60
2021/03/31 15:31:27;;;;;;;;;;;;;;;13.99;39.73;101518.89;1747094;82;20310;-59
2021/03/31 15:34:31;;;;;;;;;;;;;;;13.97;39.76;101521.48;1746429;82;20208;-59
2021/03/31 15:37:35;;;;;;;;;;;;;;;13.92;39.91;101518.37;1746492;82;20298;-60
2021/03/31 15:40:38;;;;;;;;;;;;;;;13.88;40.11;101517.84;1744344;81;20238;-59
2021/03/31 15:43:42;;;;;;;;;;;;;;;13.84;40.36;101513.72;1739371;82;20243;-59
2021/03/31 15:47:01;;;;;;;;;;;;;;;13.79;40.52;101513.87;1739415;82;20231;-59
2021/03/31 15:50:00;;;;;;;;;;;;;;;13.74;40.61;101514.38;1739260;82;20843;-59
2021/03/31 15:53:04;;;;;;;;;;;;;;;13.71;40.89;101511.97;1739582;82;20240;-59
2021/03/31 15:56:07;;;;;;;;;;;;;;;13.67;40.98;101505.59;1739957;82;20255;-60
2021/03/31 15:59:12;;;;;;;;;;;;;;;13.62;41.10;101502.48;1740218;82;20351;-59
2021/03/31 16:02:18;;;;;;;;;;;;;;;13.56;41.03;101506.75;1740746;82;20334;-58
2021/03/31 16:05:21;;;;;;;;;;;;;;;13.48;40.97;101502.09;1739481;82;20227;-58
2021/03/31 16:08:25;;;;;;;;;;;;;;;13.39;41.04;101503.11;1740005;82;20232;-58
2021/03/31 16:11:29;;;;;;;;;;;;;;;13.30;41.20;101504.08;1710691;83;20193;-58
2021/03/31 16:14:32;;;;;;;;;;;;;;;13.23;41.44;101504.42;1710601;83;20190;-58
2021/03/31 16:17:37;;;;;;;;;;;;;;;13.17;41.65;101500.96;1710763;84;20209;-58
2021/03/31 16:20:40;;;;;;;;;;;;;;;13.11;41.81;101505.72;1710722;83;20209;-58
2021/03/31 16:23:44;;;;;;;;;;;;;;;13.04;42.16;101501.92;1710642;83;20214;-58
2021/03/31 16:26:49;;;;;;;;;;;;;;;12.96;42.60;101500.47;1710354;83;20178;-58
2021/03/31 16:31:24;;;;;;;;;;;;;;;12.87;43.04;101494.59;1710902;83;20201;-57
2021/03/31 16:33:09;;;;;;;;;;;;;;;12.79;43.38;101491.80;1709857;83;20213;-58
2021/03/31 16:36:14;;;;;;;;;;;;;;;12.71;43.71;101492.25;1710526;83;20226;-58
2021/03/31 16:39:21;;;;;;;;;;;;;;;12.61;44.01;101489.62;1710438;83;20206;-65
2021/03/31 16:42:27;;;;;;;;;;;;;;;12.52;44.31;101492.47;1716869;82;20201;-59
2021/03/31 16:45:30;;;;;;;;;;;;;;;12.43;44.58;101490.16;1726370;83;20562;-59
2021/03/31 16:48:36;;;;;;;;;;;;;;;12.35;44.83;101490.64;1721261;83;20622;-59
2021/03/31 16:51:39;;;;;;;;;;;;;;;12.27;45.04;101496.94;1727655;83;20261;-59
2021/03/31 16:54:45;;;;;;;;;;;;;;;12.21;45.22;101489.84;1724081;82;20250;-59
2021/03/31 16:57:50;;;;;;;;;;;;;;;12.19;45.37;101491.88;1749356;82;20211;-58
2021/03/31 17:00:54;;;;;;;;;;;;;;;12.15;45.79;101498.19;1750498;82;20234;-59
2021/03/31 17:03:59;;;;;;;;;;;;;;;12.12;46.15;101493.52;1750768;81;20229;-58
2021/03/31 17:07:06;;;;;;;;;;;;;;;12.06;46.13;101492.29;1726819;82;20269;-58
2021/03/31 17:10:11;;;;;;;;;;;;;;;12.03;46.39;101495.36;1730799;82;20228;-59
2021/03/31 17:13:15;;;;;;;;;;;;;;;11.98;46.53;101494.46;1756050;80;20274;-58
2021/03/31 17:16:20;;;;;;;;;;;;;;;11.95;46.33;101495.28;1752767;81;20224;-58
2021/03/31 17:19:23;;;;;;;;;;;;;;;11.90;46.35;101494.89;1751176;79;20266;-59
2021/03/31 17:22:27;;;;;;;;;;;;;;;11.87;46.44;101495.20;1748626;80;20199;-59
2021/03/31 17:25:31;;;;;;;;;;;;;;;11.85;46.43;101495.86;1746258;81;20219;-59
2021/03/31 17:28:36;;;;;;;;;;;;;;;11.83;46.41;101500.63;1751212;82;20228;-59
2021/03/31 17:31:40;;;;;;;;;;;;;;;11.82;46.49;101497.55;1746031;82;20224;-59